sensor_id;sensor_type;location;lat;lon;timestamp;pressure;altitude;pressure_sealevel;temperature;humidity
72438;BME280;60444;43.534;-5.674;2023-05-16T00:02:24;102467.84;;;14.97;100.00
72438;BME280;60444;43.534;-5.674;2023-05-16T00:04:49;102462.53;;;14.94;100.00
72438;BME280;60444;43.534;-5.674;2023-05-16T00:07:16;102469.63;;;14.98;100.00
72438;BME280;60444;43.534;-5.674;2023-05-16T00:09:41;102491.75;;;15.12;100.00
72438;BME280;60444;43.534;-5.674;2023-05-16T00:12:07;102460.69;;;14.94;100.00
72438;BME280;60444;43.534;-5.674;2023-05-16T00:14:33;102429.50;;;14.80;100.00
72438;BME280;60444;43.534;-5.674;2023-05-16T00:17:00;102435.88;;;14.79;100.00
72438;BME280;60444;43.534;-5.674;2023-05-16T00:19:35;102463.41;;;14.94;100.00
72438;BME280;60444;43.534;-5.674;2023-05-16T00:22:01;102477.13;;;14.93;100.00
72438;BME280;60444;43.534;-5.674;2023-05-16T00:24:27;102487.69;;;15.00;100.00
72438;BME280;60444;43.534;-5.674;2023-05-16T00:26:52;102473.72;;;14.86;100.00
72438;BME280;60444;43.534;-5.674;2023-05-16T00:29:18;102439.75;;;14.73;100.00
72438;BME280;60444;43.534;-5.674;2023-05-16T00:31:43;102415.03;;;14.56;100.00
72438;BME280;60444;43.534;-5.674;2023-05-16T00:34:09;102447.13;;;14.71;100.00
72438;BME280;60444;43.534;-5.674;2023-05-16T00:36:34;102456.91;;;14.75;100.00
72438;BME280;60444;43.534;-5.674;2023-05-16T00:39:00;102483.56;;;14.90;100.00
72438;BME280;60444;43.534;-5.674;2023-05-16T00:41:26;102442.66;;;14.69;100.00
72438;BME280;60444;43.534;-5.674;2023-05-16T00:43:51;102450.16;;;14.64;100.00
72438;BME280;60444;43.534;-5.674;2023-05-16T00:46:17;102424.09;;;14.57;100.00
72438;BME280;60444;43.534;-5.674;2023-05-16T00:48:43;102406.53;;;14.42;100.00
72438;BME280;60444;43.534;-5.674;2023-05-16T00:51:09;102452.59;;;14.70;100.00
72438;BME280;60444;43.534;-5.674;2023-05-16T00:53:35;102387.91;;;14.31;100.00
72438;BME280;60444;43.534;-5.674;2023-05-16T00:56:01;102475.75;;;14.81;100.00
72438;BME280;60444;43.534;-5.674;2023-05-16T00:58:29;102473.94;;;14.82;100.00
72438;BME280;60444;43.534;-5.674;2023-05-16T01:00:55;102457.25;;;14.68;100.00
72438;BME280;60444;43.534;-5.674;2023-05-16T01:03:21;102460.69;;;14.73;100.00
72438;BME280;60444;43.534;-5.674;2023-05-16T01:05:46;102454.47;;;14.69;100.00
72438;BME280;60444;43.534;-5.674;2023-05-16T01:08:14;102458.94;;;14.70;100.00
72438;BME280;60444;43.534;-5.674;2023-05-16T01:13:40;102406.34;;;14.46;100.00
72438;BME280;60444;43.534;-5.674;2023-05-16T01:16:17;102443.81;;;14.63;100.00
72438;BME280;60444;43.534;-5.674;2023-05-16T01:19:13;102452.59;;;14.70;100.00
72438;BME280;60444;43.534;-5.674;2023-05-16T01:22:02;102438.41;;;14.62;100.00
72438;BME280;60444;43.534;-5.674;2023-05-16T01:24:43;102413.38;;;14.52;100.00
72438;BME280;60444;43.534;-5.674;2023-05-16T01:27:15;102426.88;;;14.55;100.00
72438;BME280;60444;43.534;-5.674;2023-05-16T01:29:41;102435.47;;;14.68;100.00
72438;BME280;60444;43.534;-5.674;2023-05-16T01:32:06;102372.44;;;14.32;100.00
72438;BME280;60444;43.534;-5.674;2023-05-16T01:34:32;102375.22;;;14.30;100.00
72438;BME280;60444;43.534;-5.674;2023-05-16T01:37:11;102372.38;;;14.33;100.00
72438;BME280;60444;43.534;-5.674;2023-05-16T01:39:46;102439.94;;;14.69;100.00
72438;BME280;60444;43.534;-5.674;2023-05-16T01:42:18;102440.00;;;14.67;100.00
72438;BME280;60444;43.534;-5.674;2023-05-16T01:45:20;102433.59;;;14.68;100.00
72438;BME280;60444;43.534;-5.674;2023-05-16T01:47:54;102428.53;;;14.59;100.00
72438;BME280;60444;43.534;-5.674;2023-05-16T01:50:24;102426.47;;;14.66;100.00
72438;BME280;60444;43.534;-5.674;2023-05-16T01:52:59;102414.16;;;14.55;100.00
72438;BME280;60444;43.534;-5.674;2023-05-16T01:55:47;102421.13;;;14.63;100.00
72438;BME280;60444;43.534;-5.674;2023-05-16T01:58:15;102410.22;;;14.63;100.00
72438;BME280;60444;43.534;-5.674;2023-05-16T02:00:42;102378.41;;;14.41;100.00
72438;BME280;60444;43.534;-5.674;2023-05-16T02:03:08;102401.50;;;14.54;100.00
72438;BME280;60444;43.534;-5.674;2023-05-16T02:05:33;102413.06;;;14.60;100.00
72438;BME280;60444;43.534;-5.674;2023-05-16T02:07:59;102413.06;;;14.60;100.00
72438;BME280;60444;43.534;-5.674;2023-05-16T02:10:26;102394.97;;;14.59;100.00
72438;BME280;60444;43.534;-5.674;2023-05-16T02:12:52;102389.06;;;14.47;100.00
72438;BME280;60444;43.534;-5.674;2023-05-16T02:15:17;102324.81;;;14.20;100.00
72438;BME280;60444;43.534;-5.674;2023-05-16T02:17:43;102354.88;;;14.40;100.00
72438;BME280;60444;43.534;-5.674;2023-05-16T02:20:09;102390.22;;;14.64;100.00
72438;BME280;60444;43.534;-5.674;2023-05-16T02:22:36;102391.09;;;14.64;100.00
72438;BME280;60444;43.534;-5.674;2023-05-16T02:25:04;102356.63;;;14.41;100.00
72438;BME280;60444;43.534;-5.674;2023-05-16T02:27:30;102333.66;;;14.25;100.00
72438;BME280;60444;43.534;-5.674;2023-05-16T02:29:56;102363.75;;;14.45;100.00
72438;BME280;60444;43.534;-5.674;2023-05-16T02:32:22;102366.31;;;14.48;100.00
72438;BME280;60444;43.534;-5.674;2023-05-16T02:34:47;102389.53;;;14.59;100.00
72438;BME280;60444;43.534;-5.674;2023-05-16T02:37:13;102359.22;;;14.44;100.00
72438;BME280;60444;43.534;-5.674;2023-05-16T02:39:38;102390.59;;;14.54;100.00
72438;BME280;60444;43.534;-5.674;2023-05-16T02:42:05;102384.19;;;14.55;100.00
72438;BME280;60444;43.534;-5.674;2023-05-16T02:44:31;102384.25;;;14.54;100.00
72438;BME280;60444;43.534;-5.674;2023-05-16T02:46:56;102379.63;;;14.56;100.00
72438;BME280;60444;43.534;-5.674;2023-05-16T02:49:22;102341.66;;;14.30;100.00
72438;BME280;60444;43.534;-5.674;2023-05-16T02:51:47;102358.72;;;14.35;100.00
72438;BME280;60444;43.534;-5.674;2023-05-16T02:54:13;102389.56;;;14.57;100.00
72438;BME280;60444;43.534;-5.674;2023-05-16T02:56:39;102350.28;;;14.41;100.00
72438;BME280;60444;43.534;-5.674;2023-05-16T02:59:04;102351.06;;;14.44;100.00
72438;BME280;60444;43.534;-5.674;2023-05-16T03:01:30;102303.25;;;14.14;100.00
72438;BME280;60444;43.534;-5.674;2023-05-16T03:03:56;102366.31;;;14.48;100.00
72438;BME280;60444;43.534;-5.674;2023-05-16T03:06:21;102344.22;;;14.34;100.00
72438;BME280;60444;43.534;-5.674;2023-05-16T03:08:47;102318.63;;;14.15;100.00
72438;BME280;60444;43.534;-5.674;2023-05-16T03:11:16;102361.00;;;14.45;100.00
72438;BME280;60444;43.534;-5.674;2023-05-16T03:13:44;102368.97;;;14.50;100.00
72438;BME280;60444;43.534;-5.674;2023-05-16T03:16:10;102307.03;;;14.10;100.00
72438;BME280;60444;43.534;-5.674;2023-05-16T03:18:35;102387.22;;;14.48;100.00
72438;BME280;60444;43.534;-5.674;2023-05-16T03:21:01;102342.56;;;14.30;100.00
72438;BME280;60444;43.534;-5.674;2023-05-16T03:23:27;102353.44;;;14.30;100.00
72438;BME280;60444;43.534;-5.674;2023-05-16T03:25:53;102370.09;;;14.44;100.00
72438;BME280;60444;43.534;-5.674;2023-05-16T03:28:18;102385.31;;;14.50;100.00
72438;BME280;60444;43.534;-5.674;2023-05-16T03:30:44;102385.25;;;14.51;100.00
72438;BME280;60444;43.534;-5.674;2023-05-16T03:33:10;102354.69;;;14.45;100.00
72438;BME280;60444;43.534;-5.674;2023-05-16T03:35:35;102355.25;;;14.53;100.00
72438;BME280;60444;43.534;-5.674;2023-05-16T03:38:01;102354.53;;;14.48;100.00
72438;BME280;60444;43.534;-5.674;2023-05-16T03:40:27;102332.19;;;14.40;100.00
72438;BME280;60444;43.534;-5.674;2023-05-16T03:42:52;102367.69;;;14.60;100.00
72438;BME280;60444;43.534;-5.674;2023-05-16T03:45:18;102351.78;;;14.49;100.00
72438;BME280;60444;43.534;-5.674;2023-05-16T03:47:43;102344.00;;;14.40;100.00
72438;BME280;60444;43.534;-5.674;2023-05-16T03:50:09;102359.88;;;14.51;100.00
72438;BME280;60444;43.534;-5.674;2023-05-16T03:52:38;102308.53;;;14.19;100.00
72438;BME280;60444;43.534;-5.674;2023-05-16T03:55:03;102347.69;;;14.38;100.00
72438;BME280;60444;43.534;-5.674;2023-05-16T03:57:31;102326.56;;;14.21;100.00
72438;BME280;60444;43.534;-5.674;2023-05-16T03:59:57;102342.69;;;14.27;100.00
72438;BME280;60444;43.534;-5.674;2023-05-16T04:02:22;102315.91;;;14.15;100.00
72438;BME280;60444;43.534;-5.674;2023-05-16T04:04:48;102369.47;;;14.38;100.00
72438;BME280;60444;43.534;-5.674;2023-05-16T04:07:13;102374.16;;;14.34;100.00
72438;BME280;60444;43.534;-5.674;2023-05-16T04:09:39;102376.88;;;14.34;100.00
72438;BME280;60444;43.534;-5.674;2023-05-16T04:12:05;102291.56;;;13.89;100.00
72438;BME280;60444;43.534;-5.674;2023-05-16T04:14:32;102317.72;;;13.93;100.00
72438;BME280;60444;43.534;-5.674;2023-05-16T04:16:58;102354.69;;;14.22;100.00
72438;BME280;60444;43.534;-5.674;2023-05-16T04:19:24;102334.38;;;14.07;100.00
72438;BME280;60444;43.534;-5.674;2023-05-16T04:21:49;102329.06;;;14.04;100.00
72438;BME280;60444;43.534;-5.674;2023-05-16T04:24:16;102362.78;;;14.23;100.00
72438;BME280;60444;43.534;-5.674;2023-05-16T04:26:42;102323.09;;;13.95;100.00
72438;BME280;60444;43.534;-5.674;2023-05-16T04:29:07;102297.50;;;13.77;100.00
72438;BME280;60444;43.534;-5.674;2023-05-16T04:31:33;102314.47;;;13.84;100.00
72438;BME280;60444;43.534;-5.674;2023-05-16T04:33:58;102358.59;;;14.15;100.00
72438;BME280;60444;43.534;-5.674;2023-05-16T04:36:24;102308.06;;;13.85;100.00
72438;BME280;60444;43.534;-5.674;2023-05-16T04:38:54;102355.88;;;14.15;100.00
72438;BME280;60444;43.534;-5.674;2023-05-16T04:41:20;102360.41;;;14.14;100.00
72438;BME280;60444;43.534;-5.674;2023-05-16T04:43:47;102357.69;;;14.14;100.00
72438;BME280;60444;43.534;-5.674;2023-05-16T04:46:13;102354.25;;;14.09;100.00
72438;BME280;60444;43.534;-5.674;2023-05-16T04:48:40;102338.28;;;14.00;100.00
72438;BME280;60444;43.534;-5.674;2023-05-16T04:51:05;102353.44;;;14.07;100.00
72438;BME280;60444;43.534;-5.674;2023-05-16T04:53:31;102304.69;;;13.78;100.00
72438;BME280;60444;43.534;-5.674;2023-05-16T04:55:57;102310.91;;;13.82;100.00
72438;BME280;60444;43.534;-5.674;2023-05-16T04:58:23;102363.84;;;14.19;100.00
72438;BME280;60444;43.534;-5.674;2023-05-16T05:00:50;102359.22;;;14.21;100.00
72438;BME280;60444;43.534;-5.674;2023-05-16T05:03:15;102372.91;;;14.20;100.00
72438;BME280;60444;43.534;-5.674;2023-05-16T05:05:42;102372.13;;;14.16;100.00
72438;BME280;60444;43.534;-5.674;2023-05-16T05:08:08;102359.72;;;14.09;100.00
72438;BME280;60444;43.534;-5.674;2023-05-16T05:10:34;102362.50;;;14.08;100.00
72438;BME280;60444;43.534;-5.674;2023-05-16T05:12:59;102353.03;;;13.95;100.00
72438;BME280;60444;43.534;-5.674;2023-05-16T05:15:25;102368.72;;;14.11;100.00
72438;BME280;60444;43.534;-5.674;2023-05-16T05:17:51;102347.88;;;13.87;100.00
72438;BME280;60444;43.534;-5.674;2023-05-16T05:20:16;102352.31;;;13.90;100.00
72438;BME280;60444;43.534;-5.674;2023-05-16T05:22:42;102376.13;;;14.06;100.00
72438;BME280;60444;43.534;-5.674;2023-05-16T05:25:08;102360.28;;;13.94;100.00
72438;BME280;60444;43.534;-5.674;2023-05-16T05:27:33;102378.06;;;14.04;100.00
72438;BME280;60444;43.534;-5.674;2023-05-16T05:29:59;102385.19;;;14.07;100.00
72438;BME280;60444;43.534;-5.674;2023-05-16T05:32:24;102366.69;;;13.93;100.00
72438;BME280;60444;43.534;-5.674;2023-05-16T05:34:50;102387.00;;;14.06;100.00
72438;BME280;60444;43.534;-5.674;2023-05-16T05:37:16;102350.44;;;13.92;100.00
72438;BME280;60444;43.534;-5.674;2023-05-16T05:39:42;102371.50;;;14.10;100.00
72438;BME280;60444;43.534;-5.674;2023-05-16T05:42:08;102387.75;;;14.11;100.00
72438;BME280;60444;43.534;-5.674;2023-05-16T05:44:33;102311.19;;;13.74;100.00
72438;BME280;60444;43.534;-5.674;2023-05-16T05:46:59;102377.03;;;14.07;100.00
72438;BME280;60444;43.534;-5.674;2023-05-16T05:49:25;102356.31;;;14.03;100.00
72438;BME280;60444;43.534;-5.674;2023-05-16T05:51:52;102346.69;;;13.94;100.00
72438;BME280;60444;43.534;-5.674;2023-05-16T05:54:18;102351.72;;;14.05;100.00
72438;BME280;60444;43.534;-5.674;2023-05-16T05:56:44;102328.69;;;13.90;100.00
72438;BME280;60444;43.534;-5.674;2023-05-16T05:59:10;102353.56;;;14.04;100.00
72438;BME280;60444;43.534;-5.674;2023-05-16T06:01:36;102328.00;;;13.85;100.00
72438;BME280;60444;43.534;-5.674;2023-05-16T06:04:02;102363.34;;;14.10;100.00
72438;BME280;60444;43.534;-5.674;2023-05-16T06:06:27;102391.44;;;14.33;100.00
72438;BME280;60444;43.534;-5.674;2023-05-16T06:08:53;102356.03;;;14.10;100.00
72438;BME280;60444;43.534;-5.674;2023-05-16T06:11:19;102396.09;;;14.30;100.00
72438;BME280;60444;43.534;-5.674;2023-05-16T06:13:46;102396.00;;;14.33;100.00
72438;BME280;60444;43.534;-5.674;2023-05-16T06:16:12;102394.13;;;14.35;100.00
72438;BME280;60444;43.534;-5.674;2023-05-16T06:18:37;102336.41;;;14.02;100.00
72438;BME280;60444;43.534;-5.674;2023-05-16T06:21:04;102371.50;;;14.33;100.00
72438;BME280;60444;43.534;-5.674;2023-05-16T06:23:30;102396.28;;;14.48;100.00
72438;BME280;60444;43.534;-5.674;2023-05-16T06:25:55;102347.25;;;14.27;100.00
72438;BME280;60444;43.534;-5.674;2023-05-16T06:28:21;102340.81;;;14.29;100.00
72438;BME280;60444;43.534;-5.674;2023-05-16T06:30:48;102386.84;;;14.57;100.00
72438;BME280;60444;43.534;-5.674;2023-05-16T06:33:16;102335.16;;;14.34;100.00
72438;BME280;60444;43.534;-5.674;2023-05-16T06:35:42;102382.81;;;14.67;100.00
72438;BME280;60444;43.534;-5.674;2023-05-16T06:38:07;102408.28;;;14.88;100.00
72438;BME280;60444;43.534;-5.674;2023-05-16T06:40:32;102372.69;;;14.71;100.00
72438;BME280;60444;43.534;-5.674;2023-05-16T06:42:58;102394.53;;;14.91;100.00
72438;BME280;60444;43.534;-5.674;2023-05-16T06:45:24;102414.94;;;15.02;100.00
72438;BME280;60444;43.534;-5.674;2023-05-16T06:47:50;102363.31;;;14.78;100.00
72438;BME280;60444;43.534;-5.674;2023-05-16T06:50:15;102411.94;;;15.08;100.00
72438;BME280;60444;43.534;-5.674;2023-05-16T06:52:41;102380.53;;;15.00;100.00
72438;BME280;60444;43.534;-5.674;2023-05-16T06:55:07;102411.56;;;15.17;100.00
72438;BME280;60444;43.534;-5.674;2023-05-16T06:57:33;102420.44;;;15.22;100.00
72438;BME280;60444;43.534;-5.674;2023-05-16T06:59:58;102371.31;;;15.02;100.00
72438;BME280;60444;43.534;-5.674;2023-05-16T07:02:24;102391.81;;;15.12;100.00
72438;BME280;60444;43.534;-5.674;2023-05-16T07:04:50;102375.50;;;15.11;100.00
72438;BME280;60444;43.534;-5.674;2023-05-16T07:07:15;102396.53;;;15.29;100.00
72438;BME280;60444;43.534;-5.674;2023-05-16T07:09:41;102379.75;;;15.18;100.00
72438;BME280;60444;43.534;-5.674;2023-05-16T07:12:07;102362.69;;;15.13;100.00
72438;BME280;60444;43.534;-5.674;2023-05-16T07:14:33;102353.06;;;15.04;100.00
72438;BME280;60444;43.534;-5.674;2023-05-16T07:16:58;102398.28;;;15.30;100.00
72438;BME280;60444;43.534;-5.674;2023-05-16T07:19:24;102339.00;;;14.93;100.00
72438;BME280;60444;43.534;-5.674;2023-05-16T07:21:49;102354.13;;;15.00;100.00
72438;BME280;60444;43.534;-5.674;2023-05-16T07:24:15;102404.66;;;15.30;100.00
72438;BME280;60444;43.534;-5.674;2023-05-16T07:26:41;102411.84;;;15.31;100.00
72438;BME280;60444;43.534;-5.674;2023-05-16T07:29:06;102354.09;;;15.02;100.00
72438;BME280;60444;43.534;-5.674;2023-05-16T07:31:32;102388.09;;;15.13;100.00
72438;BME280;60444;43.534;-5.674;2023-05-16T07:33:57;102356.84;;;15.02;100.00
72438;BME280;60444;43.534;-5.674;2023-05-16T07:36:23;102408.19;;;15.32;100.00
72438;BME280;60444;43.534;-5.674;2023-05-16T07:38:49;102409.19;;;15.30;100.00
72438;BME280;60444;43.534;-5.674;2023-05-16T07:41:14;102341.63;;;14.96;100.00
72438;BME280;60444;43.534;-5.674;2023-05-16T07:43:40;102403.59;;;15.33;100.00
72438;BME280;60444;43.534;-5.674;2023-05-16T07:46:05;102357.31;;;15.11;100.00
72438;BME280;60444;43.534;-5.674;2023-05-16T07:48:31;102390.44;;;15.22;100.00
72438;BME280;60444;43.534;-5.674;2023-05-16T07:50:57;102375.31;;;15.15;100.00
72438;BME280;60444;43.534;-5.674;2023-05-16T07:53:22;102397.41;;;15.29;100.00
72438;BME280;60444;43.534;-5.674;2023-05-16T07:55:48;102346.88;;;15.01;100.00
72438;BME280;60444;43.534;-5.674;2023-05-16T07:58:14;102334.31;;;14.97;100.00
72438;BME280;60444;43.534;-5.674;2023-05-16T08:00:40;102411.41;;;15.42;100.00
72438;BME280;60444;43.534;-5.674;2023-05-16T08:03:05;102383.22;;;15.21;100.00
72438;BME280;60444;43.534;-5.674;2023-05-16T08:05:31;102363.72;;;15.10;100.00
72438;BME280;60444;43.534;-5.674;2023-05-16T08:07:56;102359.16;;;15.11;100.00
72438;BME280;60444;43.534;-5.674;2023-05-16T08:10:22;102346.47;;;15.10;100.00
72438;BME280;60444;43.534;-5.674;2023-05-16T08:12:48;102420.91;;;15.53;100.00
72438;BME280;60444;43.534;-5.674;2023-05-16T08:15:14;102418.94;;;15.57;100.00
72438;BME280;60444;43.534;-5.674;2023-05-16T08:17:39;102392.91;;;15.50;100.00
72438;BME280;60444;43.534;-5.674;2023-05-16T08:20:06;102410.44;;;15.65;100.00
72438;BME280;60444;43.534;-5.674;2023-05-16T08:22:32;102409.38;;;15.67;100.00
72438;BME280;60444;43.534;-5.674;2023-05-16T08:24:58;102413.41;;;15.79;100.00
72438;BME280;60444;43.534;-5.674;2023-05-16T08:27:26;102333.16;;;15.44;100.00
72438;BME280;60444;43.534;-5.674;2023-05-16T08:29:51;102402.09;;;15.88;100.00
72438;BME280;60444;43.534;-5.674;2023-05-16T08:32:18;102388.44;;;15.88;100.00
72438;BME280;60444;43.534;-5.674;2023-05-16T08:34:44;102407.94;;;15.99;100.00
72438;BME280;60444;43.534;-5.674;2023-05-16T08:37:09;102363.22;;;15.83;100.00
72438;BME280;60444;43.534;-5.674;2023-05-16T08:39:37;102396.81;;;16.03;100.00
72438;BME280;60444;43.534;-5.674;2023-05-16T08:42:03;102370.91;;;15.93;100.00
72438;BME280;60444;43.534;-5.674;2023-05-16T08:44:29;102397.84;;;16.19;100.00
72438;BME280;60444;43.534;-5.674;2023-05-16T08:46:56;102317.03;;;15.78;100.00
72438;BME280;60444;43.534;-5.674;2023-05-16T08:49:22;102374.53;;;16.12;100.00
72438;BME280;60444;43.534;-5.674;2023-05-16T08:51:55;102378.97;;;16.15;100.00
72438;BME280;60444;43.534;-5.674;2023-05-16T08:54:21;102412.34;;;16.40;100.00
72438;BME280;60444;43.534;-5.674;2023-05-16T08:56:47;102358.75;;;16.19;100.00
72438;BME280;60444;43.534;-5.674;2023-05-16T08:59:15;102379.56;;;16.40;100.00
72438;BME280;60444;43.534;-5.674;2023-05-16T09:01:40;102397.94;;;16.56;100.00
72438;BME280;60444;43.534;-5.674;2023-05-16T09:04:07;102383.53;;;16.53;100.00
72438;BME280;60444;43.534;-5.674;2023-05-16T09:06:37;102372.69;;;16.51;100.00
72438;BME280;60444;43.534;-5.674;2023-05-16T09:09:03;102396.41;;;16.68;100.00
72438;BME280;60444;43.534;-5.674;2023-05-16T09:11:31;102416.00;;;16.78;100.00
72438;BME280;60444;43.534;-5.674;2023-05-16T09:13:57;102412.97;;;16.84;100.00
72438;BME280;60444;43.534;-5.674;2023-05-16T09:16:22;102372.00;;;16.65;100.00
72438;BME280;60444;43.534;-5.674;2023-05-16T09:18:59;102412.16;;;16.82;100.00
72438;BME280;60444;43.534;-5.674;2023-05-16T09:21:30;102365.63;;;16.65;100.00
72438;BME280;60444;43.534;-5.674;2023-05-16T09:24:02;102409.13;;;16.88;100.00
72438;BME280;60444;43.534;-5.674;2023-05-16T09:26:29;102374.19;;;16.76;100.00
72438;BME280;60444;43.534;-5.674;2023-05-16T09:28:55;102390.72;;;16.91;100.00
72438;BME280;60444;43.534;-5.674;2023-05-16T09:31:26;102382.63;;;16.90;100.00
72438;BME280;60444;43.534;-5.674;2023-05-16T09:33:55;102395.56;;;17.03;100.00
72438;BME280;60444;43.534;-5.674;2023-05-16T09:36:21;102399.03;;;17.07;100.00
72438;BME280;60444;43.534;-5.674;2023-05-16T09:38:46;102391.66;;;17.09;100.00
72438;BME280;60444;43.534;-5.674;2023-05-16T09:41:12;102348.66;;;16.94;100.00
72438;BME280;60444;43.534;-5.674;2023-05-16T09:43:39;102374.34;;;17.08;100.00
72438;BME280;60444;43.534;-5.674;2023-05-16T09:46:15;102384.25;;;17.11;100.00
72438;BME280;60444;43.534;-5.674;2023-05-16T09:48:46;102364.19;;;16.93;100.00
72438;BME280;60444;43.534;-5.674;2023-05-16T09:51:12;102365.66;;;17.00;100.00
72438;BME280;60444;43.534;-5.674;2023-05-16T09:53:39;102389.00;;;17.07;100.00
72438;BME280;60444;43.534;-5.674;2023-05-16T09:56:10;102354.84;;;16.97;100.00
72438;BME280;60444;43.534;-5.674;2023-05-16T09:58:40;102345.19;;;16.73;100.00
72438;BME280;60444;43.534;-5.674;2023-05-16T10:01:09;102377.47;;;17.01;100.00
72438;BME280;60444;43.534;-5.674;2023-05-16T10:03:40;102380.53;;;16.95;100.00
72438;BME280;60444;43.534;-5.674;2023-05-16T10:06:06;102390.56;;;16.94;100.00
72438;BME280;60444;43.534;-5.674;2023-05-16T10:08:33;102361.41;;;16.76;100.00
72438;BME280;60444;43.534;-5.674;2023-05-16T10:11:01;102385.41;;;16.88;100.00
72438;BME280;60444;43.534;-5.674;2023-05-16T10:13:29;102390.03;;;16.86;100.00
72438;BME280;60444;43.534;-5.674;2023-05-16T10:15:57;102318.91;;;16.52;100.00
72438;BME280;60444;43.534;-5.674;2023-05-16T10:18:30;102382.00;;;16.83;100.00
72438;BME280;60444;43.534;-5.674;2023-05-16T10:20:59;102381.28;;;16.80;100.00
72438;BME280;60444;43.534;-5.674;2023-05-16T10:23:27;102366.16;;;16.73;100.00
72438;BME280;60444;43.534;-5.674;2023-05-16T10:25:54;102374.72;;;16.84;100.00
72438;BME280;60444;43.534;-5.674;2023-05-16T10:28:20;102383.63;;;16.87;100.00
72438;BME280;60444;43.534;-5.674;2023-05-16T10:30:46;102378.09;;;16.89;100.00
72438;BME280;60444;43.534;-5.674;2023-05-16T10:33:17;102371.50;;;16.93;100.00
72438;BME280;60444;43.534;-5.674;2023-05-16T10:35:44;102368.63;;;16.96;100.00
72438;BME280;60444;43.534;-5.674;2023-05-16T10:38:11;102364.59;;;17.03;100.00
72438;BME280;60444;43.534;-5.674;2023-05-16T10:40:39;102356.91;;;17.11;100.00
72438;BME280;60444;43.534;-5.674;2023-05-16T10:43:07;102361.81;;;17.21;100.00
72438;BME280;60444;43.534;-5.674;2023-05-16T10:45:34;102362.63;;;17.23;100.00
72438;BME280;60444;43.534;-5.674;2023-05-16T10:48:04;102365.06;;;17.29;100.00
72438;BME280;60444;43.534;-5.674;2023-05-16T11:09:29;102362.25;;;16.95;100.00
72438;BME280;60444;43.534;-5.674;2023-05-16T11:11:59;102370.69;;;16.91;100.00
72438;BME280;60444;43.534;-5.674;2023-05-16T11:17:15;102347.22;;;16.87;100.00
72438;BME280;60444;43.534;-5.674;2023-05-16T11:19:56;102327.25;;;16.68;100.00
72438;BME280;60444;43.534;-5.674;2023-05-16T11:22:33;102315.00;;;16.57;100.00
72438;BME280;60444;43.534;-5.674;2023-05-16T11:25:01;102304.38;;;16.51;100.00
72438;BME280;60444;43.534;-5.674;2023-05-16T11:27:42;102365.41;;;16.88;100.00
72438;BME280;60444;43.534;-5.674;2023-05-16T11:30:13;102359.19;;;16.84;100.00
72438;BME280;60444;43.534;-5.674;2023-05-16T11:32:42;102326.66;;;16.61;100.00
72438;BME280;60444;43.534;-5.674;2023-05-16T11:35:15;102363.94;;;16.81;100.00
72438;BME280;60444;43.534;-5.674;2023-05-16T11:37:43;102356.25;;;16.70;100.00
72438;BME280;60444;43.534;-5.674;2023-05-16T11:40:10;102351.38;;;16.77;100.00
72438;BME280;60444;43.534;-5.674;2023-05-16T11:42:41;102357.59;;;16.62;100.00
72438;BME280;60444;43.534;-5.674;2023-05-16T11:45:16;102339.16;;;16.48;100.00
72438;BME280;60444;43.534;-5.674;2023-05-16T11:47:44;102355.09;;;16.57;100.00
72438;BME280;60444;43.534;-5.674;2023-05-16T11:50:11;102337.53;;;16.63;100.00
72438;BME280;60444;43.534;-5.674;2023-05-16T11:52:38;102310.97;;;16.47;100.00
72438;BME280;60444;43.534;-5.674;2023-05-16T11:55:07;102346.94;;;16.74;100.00
72438;BME280;60444;43.534;-5.674;2023-05-16T11:57:36;102293.69;;;16.47;100.00
72438;BME280;60444;43.534;-5.674;2023-05-16T12:00:13;102316.31;;;16.68;100.00
72438;BME280;60444;43.534;-5.674;2023-05-16T12:02:39;102310.59;;;16.72;100.00
72438;BME280;60444;43.534;-5.674;2023-05-16T12:05:09;102352.69;;;16.87;100.00
72438;BME280;60444;43.534;-5.674;2023-05-16T12:07:36;102335.38;;;16.86;100.00
72438;BME280;60444;43.534;-5.674;2023-05-16T12:10:09;102336.69;;;16.96;100.00
72438;BME280;60444;43.534;-5.674;2023-05-16T12:12:39;102327.38;;;17.00;100.00
72438;BME280;60444;43.534;-5.674;2023-05-16T12:15:07;102352.84;;;17.01;100.00
72438;BME280;60444;43.534;-5.674;2023-05-16T12:17:37;102339.53;;;16.95;100.00
72438;BME280;60444;43.534;-5.674;2023-05-16T12:20:04;102318.50;;;16.78;100.00
72438;BME280;60444;43.534;-5.674;2023-05-16T12:22:31;102322.78;;;16.84;100.00
72438;BME280;60444;43.534;-5.674;2023-05-16T12:25:27;102347.63;;;16.96;100.00
72438;BME280;60444;43.534;-5.674;2023-05-16T12:27:53;102350.38;;;16.96;100.00
72438;BME280;60444;43.534;-5.674;2023-05-16T12:30:24;102323.97;;;16.78;100.00
72438;BME280;60444;43.534;-5.674;2023-05-16T12:35:25;102323.34;;;16.90;100.00
72438;BME280;60444;43.534;-5.674;2023-05-16T12:37:54;102337.25;;;17.03;100.00
72438;BME280;60444;43.534;-5.674;2023-05-16T12:40:20;102334.22;;;17.09;100.00
72438;BME280;60444;43.534;-5.674;2023-05-16T12:42:49;102326.97;;;17.08;100.00
72438;BME280;60444;43.534;-5.674;2023-05-16T12:45:16;102297.94;;;17.05;100.00
72438;BME280;60444;43.534;-5.674;2023-05-16T12:47:42;102316.13;;;17.23;100.00
72438;BME280;60444;43.534;-5.674;2023-05-16T12:50:12;102324.88;;;17.30;100.00
72438;BME280;60444;43.534;-5.674;2023-05-16T12:53:01;102319.75;;;17.24;100.00
72438;BME280;60444;43.534;-5.674;2023-05-16T12:55:26;102314.34;;;17.39;100.00
72438;BME280;60444;43.534;-5.674;2023-05-16T12:57:54;102312.59;;;17.38;100.00
72438;BME280;60444;43.534;-5.674;2023-05-16T13:00:20;102310.81;;;17.37;98.96